Time;durP1;ratioP1;P1;durP2;ratioP2;P2;SDS_P1;SDS_P2;PMS_P1;PMS_P2;Temp;Humidity;BMP_temperature;BMP_pressure;BME280_temperature;BME280_humidity;BME280_pressure;Samples;Min_cycle;Max_cycle;Signal;HPM_P1;HPM_P2
2022/07/28 00:00:40;;;;;;;2.33;2.13;;;;;;;25.10;63.32;97464.94;5070147;28;20243;-31
2022/07/28 00:03:07;;;;;;;2.70;2.50;;;;;;;25.07;63.28;97465.78;5072344;28;20216;-31
2022/07/28 00:05:33;;;;;;;2.70;2.50;;;;;;;25.07;63.49;97463.19;5072155;28;20270;-31
2022/07/28 00:08:00;;;;;;;2.70;2.30;;;;;;;25.11;63.28;97461.56;5064893;28;20347;-31
2022/07/28 00:10:27;;;;;;;2.70;2.47;;;;;;;25.11;63.57;97462.41;5072040;28;20706;-31
2022/07/28 00:12:53;;;;;;;3.80;2.47;;;;;;;25.10;63.26;97460.69;5068758;28;20724;-31
2022/07/28 00:15:20;;;;;;;2.80;2.53;;;;;;;25.11;63.20;97461.56;5072889;28;20294;-31
2022/07/28 00:17:46;;;;;;;3.40;2.57;;;;;;;25.10;63.20;97452.09;5072844;28;20200;-31
2022/07/28 00:20:13;;;;;;;2.73;2.50;;;;;;;25.11;63.33;97453.84;5072284;28;20240;-31
2022/07/28 00:22:41;;;;;;;2.80;2.60;;;;;;;25.11;63.24;97464.13;5072024;28;20220;-31
2022/07/28 00:25:09;;;;;;;2.57;2.37;;;;;;;25.09;63.51;97458.97;5070610;28;20670;-31
2022/07/28 00:27:35;;;;;;;2.60;2.40;;;;;;;25.11;63.66;97458.97;5073001;28;20271;-31
2022/07/28 00:30:04;;;;;;;2.27;2.07;;;;;;;25.10;63.77;97460.69;5071543;28;20214;-31
2022/07/28 00:32:31;;;;;;;2.60;2.40;;;;;;;25.11;63.56;97459.81;5067905;28;20670;-31
2022/07/28 00:34:57;;;;;;;3.03;2.30;;;;;;;25.08;63.59;97454.63;5069348;28;20232;-31
2022/07/28 00:37:25;;;;;;;2.60;2.40;;;;;;;25.11;63.18;97469.28;5063345;28;20212;-31
2022/07/28 00:39:51;;;;;;;2.53;2.33;;;;;;;25.10;63.34;97460.69;5069167;28;20242;-31
2022/07/28 00:42:19;;;;;;;2.60;2.40;;;;;;;25.10;63.67;97462.38;5072017;28;20284;-31
2022/07/28 00:44:45;;;;;;;2.40;2.20;;;;;;;25.08;63.49;97456.38;5068591;28;20227;-31
2022/07/28 00:47:12;;;;;;;2.63;2.43;;;;;;;25.11;63.68;97464.13;5061632;28;20765;-31
2022/07/28 00:49:39;;;;;;;2.17;2.07;;;;;;;25.07;63.53;97465.78;5066851;28;20658;-31
2022/07/28 00:52:07;;;;;;;2.70;2.30;;;;;;;25.11;63.42;97464.97;5071474;28;20231;-31
2022/07/28 00:54:34;;;;;;;3.47;2.30;;;;;;;25.09;63.55;97458.97;5068183;28;20232;-31
2022/07/28 00:57:01;;;;;;;2.63;2.20;;;;;;;25.12;63.33;97465.84;5071564;28;20751;-31
2022/07/28 00:59:28;;;;;;;2.53;2.33;;;;;;;25.11;63.25;97451.25;5072192;28;20286;-31
2022/07/28 01:01:54;;;;;;;2.60;2.40;;;;;;;25.09;63.50;97453.81;5068387;28;20279;-31
2022/07/28 01:04:21;;;;;;;3.03;2.37;;;;;;;25.11;63.52;97453.84;5055146;28;20217;-31
2022/07/28 01:06:57;;;;;;;2.70;2.50;;;;;;;25.11;63.69;97436.69;5069348;28;20255;-31
2022/07/28 01:10:01;;;;;;;2.80;2.57;;;;;;;25.11;63.41;97439.25;5070224;28;20200;-31
2022/07/28 01:12:46;;;;;;;2.97;2.17;;;;;;;25.11;63.34;97436.69;5070619;28;20257;-31
2022/07/28 01:15:24;;;;;;;2.40;2.20;;;;;;;25.04;63.63;97411.72;5065429;28;20265;-31
2022/07/28 01:18:01;;;;;;;2.50;2.30;;;;;;;25.02;63.43;97405.69;5050504;28;20671;-31
2022/07/28 01:20:46;;;;;;;2.57;2.37;;;;;;;25.10;63.70;97424.66;5059906;28;20269;-31
2022/07/28 01:23:13;;;;;;;2.47;2.27;;;;;;;25.10;63.53;97422.09;5065107;28;20226;-31
2022/07/28 01:25:53;;;;;;;3.03;2.30;;;;;;;25.11;63.21;97412.69;5068379;28;20232;-31
2022/07/28 01:28:28;;;;;;;2.50;2.30;;;;;;;25.10;63.66;97419.53;5066029;28;20756;-31
2022/07/28 01:31:00;;;;;;;2.33;2.20;;;;;;;25.03;63.69;97422.88;5069523;28;20202;-31
2022/07/28 01:33:38;;;;;;;2.70;2.50;;;;;;;25.09;63.31;97412.66;5045581;28;20278;-31
2022/07/28 01:36:10;;;;;;;2.20;2.00;;;;;;;25.05;63.51;97403.16;5059750;28;20196;-31
2022/07/28 01:38:37;;;;;;;2.40;2.20;;;;;;;25.09;63.25;97417.81;5031818;28;20306;-31
2022/07/28 01:41:05;;;;;;;2.60;2.40;;;;;;;25.09;63.44;97417.81;5067530;28;20616;-31
2022/07/28 01:43:33;;;;;;;2.73;2.40;;;;;;;24.99;63.40;97394.53;5044117;28;20220;-31
2022/07/28 01:46:00;;;;;;;2.40;2.20;;;;;;;25.08;63.43;97415.22;5045938;28;20746;-31
2022/07/28 01:48:26;;;;;;;2.70;2.50;;;;;;;25.09;63.28;97417.81;5034002;28;20275;-31
2022/07/28 01:50:53;;;;;;;2.50;2.30;;;;;;;25.08;63.32;97416.06;5068643;28;20292;-31
2022/07/28 01:53:20;;;;;;;2.50;2.30;;;;;;;25.03;63.61;97396.28;5049649;28;20308;-31
2022/07/28 01:55:47;;;;;;;2.50;2.30;;;;;;;25.04;63.70;97400.56;5067416;28;20224;-31
2022/07/28 01:58:14;;;;;;;2.87;2.53;;;;;;;25.09;63.71;97407.53;5053756;28;20651;-31
2022/07/28 02:00:41;;;;;;;2.57;2.37;;;;;;;25.09;63.23;97406.66;5046251;28;20233;-31
2022/07/28 02:03:09;;;;;;;2.30;2.10;;;;;;;24.43;63.60;97288.34;5067613;28;20340;-31
2022/07/28 02:05:36;;;;;;;2.77;2.53;;;;;;;25.10;63.51;97405.78;5047398;28;20205;-31
2022/07/28 02:08:03;;;;;;;2.53;2.33;;;;;;;25.10;63.64;97400.66;5052350;28;20315;-31
2022/07/28 02:10:29;;;;;;;2.70;2.50;;;;;;;25.09;63.49;97406.66;5048624;28;20197;-31
2022/07/28 02:12:56;;;;;;;2.60;2.40;;;;;;;25.09;63.43;97404.94;5067911;28;20314;-31
2022/07/28 02:15:23;;;;;;;2.20;2.00;;;;;;;25.09;63.65;97397.25;5065831;28;20667;-31
2022/07/28 02:17:49;;;;;;;2.90;2.40;;;;;;;25.10;63.98;97398.94;5069779;28;20295;-31
2022/07/28 02:20:16;;;;;;;2.50;2.30;;;;;;;25.08;63.34;97392.06;5055488;28;20641;-31
2022/07/28 02:22:43;;;;;;;2.63;2.40;;;;;;;25.10;63.48;97398.94;5068586;28;20314;-31
2022/07/28 02:25:16;;;;;;;2.20;2.00;;;;;;;25.05;63.31;97392.03;5071896;28;20206;-31
2022/07/28 02:27:48;;;;;;;3.07;2.10;;;;;;;25.10;63.55;97391.25;5037799;28;20219;-31
2022/07/28 02:30:16;;;;;;;2.67;2.47;;;;;;;25.05;63.95;97385.16;5072484;28;20228;-31
2022/07/28 02:32:55;;;;;;;2.60;2.40;;;;;;;25.10;63.79;97390.38;5088025;22;20228;-24
2022/07/28 02:35:33;;;;;;;2.30;2.10;;;;;;;24.92;63.62;97362.72;5068383;28;20249;-24
2022/07/28 02:38:09;;;;;;;2.40;2.20;;;;;;;25.10;63.65;97392.94;5071823;28;20239;-24
2022/07/28 02:40:37;;;;;;;2.40;2.20;;;;;;;25.10;63.73;97390.38;5055105;28;20196;-24
2022/07/28 02:43:07;;;;;;;2.37;2.17;;;;;;;25.07;63.67;97391.19;5066023;28;20249;-24
2022/07/28 02:45:33;;;;;;;3.73;2.57;;;;;;;25.10;63.69;97391.25;5035058;28;20243;-24
2022/07/28 02:48:02;;;;;;;2.50;2.30;;;;;;;25.09;63.55;97381.81;5051366;28;20268;-24
2022/07/28 02:50:28;;;;;;;2.53;2.33;;;;;;;25.09;63.57;97378.34;5052049;28;20274;-24
2022/07/28 02:53:00;;;;;;;2.53;2.33;;;;;;;24.87;63.54;97343.78;5052555;28;20216;-24
2022/07/28 02:55:40;;;;;;;2.30;2.10;;;;;;;25.10;63.42;97380.06;5049817;28;20193;-25
2022/07/28 02:58:07;;;;;;;2.53;2.30;;;;;;;25.10;63.32;97380.06;5051435;28;20656;-24
2022/07/28 03:00:34;;;;;;;2.70;2.50;;;;;;;24.88;63.44;97337.81;5053039;28;21565;-24
2022/07/28 03:03:00;;;;;;;2.70;2.50;;;;;;;25.09;63.12;97383.50;5050719;28;20680;-24
2022/07/28 03:05:27;;;;;;;2.50;2.30;;;;;;;25.09;63.60;97383.50;5032073;28;20298;-24
2022/07/28 03:07:55;;;;;;;2.60;2.40;;;;;;;25.09;63.60;97383.50;5047874;28;20271;-24
2022/07/28 03:10:24;;;;;;;2.70;2.50;;;;;;;25.09;63.20;97386.06;5051161;28;20205;-24
2022/07/28 03:13:00;;;;;;;3.03;2.63;;;;;;;25.09;63.17;97404.94;5051428;28;20307;-24
2022/07/28 03:15:27;;;;;;;2.63;2.43;;;;;;;25.09;63.64;97393.78;5052155;28;20236;-24
2022/07/28 03:17:54;;;;;;;2.20;2.10;;;;;;;25.09;63.41;97394.66;5051703;28;20646;-24
2022/07/28 03:20:20;;;;;;;2.50;2.30;;;;;;;25.09;63.63;97399.81;5051763;28;20259;-24
2022/07/28 03:22:47;;;;;;;2.73;2.53;;;;;;;25.09;63.58;97402.38;5051734;28;20283;-24
2022/07/28 03:25:26;;;;;;;2.40;2.20;;;;;;;24.90;63.49;97369.53;5048058;28;20239;-24
2022/07/28 03:27:53;;;;;;;2.40;2.20;;;;;;;25.10;64.11;97404.09;5049759;28;20244;-24
2022/07/28 03:30:21;;;;;;;2.33;2.23;;;;;;;25.09;63.56;97411.78;5033898;28;20760;-24
2022/07/28 03:32:59;;;;;;;2.87;2.60;;;;;;;25.03;63.69;97388.56;5060971;28;20655;-24
2022/07/28 03:35:26;;;;;;;2.67;2.47;;;;;;;25.03;63.69;97386.88;5051041;28;20296;-24
2022/07/28 03:38:22;;;;;;;2.60;2.40;;;;;;;25.10;63.79;97395.50;5051712;28;20240;-24
2022/07/28 03:40:49;;;;;;;2.67;2.43;;;;;;;25.08;63.66;97390.34;5050056;28;20635;-24
2022/07/28 03:43:17;;;;;;;2.97;2.50;;;;;;;25.06;63.44;97391.19;5049711;28;20260;-24
2022/07/28 03:45:44;;;;;;;2.67;2.47;;;;;;;25.10;63.33;97395.50;5061988;28;20229;-24
2022/07/28 03:48:12;;;;;;;2.70;2.50;;;;;;;25.00;63.58;97399.69;5034113;28;20327;-25
2022/07/28 03:50:39;;;;;;;2.90;2.60;;;;;;;25.06;63.67;97386.91;5051050;28;20237;-24
2022/07/28 03:53:09;;;;;;;2.67;2.47;;;;;;;25.01;63.32;97385.97;5043522;28;20255;-24
2022/07/28 03:55:36;;;;;;;2.80;2.60;;;;;;;25.09;63.48;97394.66;5032079;28;20287;-24
2022/07/28 03:58:02;;;;;;;2.63;2.40;;;;;;;25.08;63.63;97392.91;5051476;28;20235;-24
2022/07/28 04:00:29;;;;;;;2.67;2.47;;;;;;;25.10;63.41;97401.53;5043371;28;20251;-24
2022/07/28 04:02:56;;;;;;;2.43;2.23;;;;;;;25.09;63.44;97397.25;5037327;28;20308;-24
2022/07/28 04:05:22;;;;;;;4.67;2.23;;;;;;;25.09;63.59;97397.25;5039345;28;20758;-24
2022/07/28 04:07:49;;;;;;;2.43;2.23;;;;;;;25.05;63.67;97397.19;5042728;28;20682;-24
2022/07/28 04:10:16;;;;;;;2.63;2.37;;;;;;;24.98;63.34;97385.94;5041405;28;20694;-24
2022/07/28 04:12:56;;;;;;;2.80;2.33;;;;;;;25.10;63.63;97406.66;5045236;28;20233;-24
2022/07/28 04:15:23;;;;;;;2.30;2.17;;;;;;;25.06;63.33;97402.34;5049147;28;20252;-24
2022/07/28 04:17:50;;;;;;;2.87;2.67;;;;;;;25.11;63.09;97407.53;5050820;28;20224;-24
2022/07/28 04:20:17;;;;;;;5.33;3.07;;;;;;;25.10;63.05;97409.25;5046971;28;20202;-24
2022/07/28 04:22:44;;;;;;;3.93;3.53;;;;;;;25.07;62.23;97410.91;5047889;28;20284;-24
2022/07/28 04:25:14;;;;;;;5.67;3.57;;;;;;;25.09;62.08;97407.53;5048064;28;20283;-24
2022/07/28 04:27:41;;;;;;;6.60;4.17;;;;;;;25.09;61.35;97412.66;5047134;28;20270;-24
2022/07/28 04:30:12;;;;;;;4.77;3.90;;;;;;;25.08;61.50;97415.22;5049389;28;20232;-24
2022/07/28 04:32:48;;;;;;;6.03;4.27;;;;;;;25.04;61.43;97403.16;5060923;28;20831;-24
2022/07/28 04:35:14;;;;;;;4.90;4.30;;;;;;;24.85;60.93;97370.31;5042739;28;20232;-24
2022/07/28 04:37:43;;;;;;;7.40;4.37;;;;;;;25.06;60.77;97401.47;5048463;28;20685;-24
2022/07/28 04:40:10;;;;;;;7.00;4.17;;;;;;;25.06;60.93;97404.03;5053485;28;20242;-24
2022/07/28 04:42:37;;;;;;;8.33;4.50;;;;;;;25.05;61.36;97408.31;5057865;28;20644;-24
2022/07/28 04:45:05;;;;;;;7.57;4.63;;;;;;;25.06;61.16;97415.19;5049836;28;20292;-24
2022/07/28 04:47:31;;;;;;;7.37;4.50;;;;;;;25.06;61.55;97411.75;5048549;28;20963;-24
2022/07/28 04:49:58;;;;;;;5.43;4.67;;;;;;;25.05;61.59;97413.44;5048031;28;20292;-24
2022/07/28 04:52:25;;;;;;;5.07;4.30;;;;;;;25.07;61.14;97416.03;5041425;28;20198;-24
2022/07/28 04:54:52;;;;;;;5.03;4.47;;;;;;;25.05;61.31;97416.03;5050187;28;20197;-24
2022/07/28 04:57:19;;;;;;;5.57;4.30;;;;;;;25.07;61.57;97418.63;5044767;28;20240;-24
2022/07/28 04:59:47;;;;;;;4.63;4.03;;;;;;;25.07;61.22;97416.91;5047752;28;20208;-24
2022/07/28 05:02:15;;;;;;;5.70;4.57;;;;;;;25.07;61.50;97423.75;5050850;28;20208;-24
2022/07/28 05:04:42;;;;;;;5.17;4.47;;;;;;;25.07;61.46;97423.75;5050105;28;20231;-24
2022/07/28 05:07:10;;;;;;;5.90;4.27;;;;;;;25.07;61.50;97424.63;5050388;28;20200;-24
2022/07/28 05:09:38;;;;;;;6.40;4.37;;;;;;;25.07;61.55;97426.31;5049848;28;20228;-24
2022/07/28 05:12:05;;;;;;;5.33;4.60;;;;;;;25.07;61.76;97422.06;5050242;28;20201;-24
2022/07/28 05:14:32;;;;;;;7.70;4.80;;;;;;;25.02;61.47;97420.28;5050451;28;20286;-24
2022/07/28 05:16:58;;;;;;;6.53;4.57;;;;;;;25.06;61.20;97430.63;5050130;28;20237;-24
2022/07/28 05:19:25;;;;;;;6.03;4.40;;;;;;;25.06;60.93;97427.19;5050493;28;20246;-24
2022/07/28 05:21:51;;;;;;;6.80;5.40;;;;;;;25.06;60.31;97430.63;5050239;28;20228;-24
2022/07/28 05:24:18;;;;;;;9.23;6.50;;;;;;;25.06;58.57;97429.75;5049878;28;20707;-24
2022/07/28 05:26:44;;;;;;;11.07;6.83;;;;;;;25.05;57.46;97426.31;5049595;28;20289;-24
2022/07/28 05:29:11;;;;;;;8.07;6.10;;;;;;;25.05;57.02;97428.03;5050319;28;20252;-24
2022/07/28 05:31:38;;;;;;;10.13;6.70;;;;;;;25.04;57.24;97434.00;5049950;28;20299;-24
2022/07/28 05:34:05;;;;;;;9.73;6.97;;;;;;;25.00;57.73;97424.53;5048207;28;20734;-24
2022/07/28 05:36:31;;;;;;;9.83;6.13;;;;;;;25.02;58.17;97425.41;5049622;28;20228;-24
2022/07/28 05:38:58;;;;;;;8.70;6.53;;;;;;;25.01;58.81;97421.97;5050057;28;20232;-24
2022/07/28 05:41:24;;;;;;;7.10;6.27;;;;;;;25.02;58.75;97430.56;5049071;28;20291;-24
2022/07/28 05:43:51;;;;;;;7.80;6.10;;;;;;;25.02;58.79;97426.25;5049726;28;20249;-24
2022/07/28 05:46:19;;;;;;;6.73;5.93;;;;;;;25.02;59.35;97425.41;5049582;28;20232;-24
2022/07/28 05:48:46;;;;;;;8.03;6.23;;;;;;;25.02;59.25;97435.72;5049958;28;20228;-24
2022/07/28 05:51:13;;;;;;;9.03;6.20;;;;;;;24.95;59.16;97421.88;5050276;28;20205;-24
2022/07/28 05:53:39;;;;;;;11.40;5.90;;;;;;;25.02;58.96;97428.00;5052123;28;20248;-24
2022/07/28 05:56:06;;;;;;;9.03;6.40;;;;;;;25.02;58.91;97426.25;5053935;28;20233;-24
2022/07/28 05:58:32;;;;;;;8.53;6.30;;;;;;;25.01;57.72;97415.97;5053791;28;20284;-24
2022/07/28 06:01:00;;;;;;;10.27;7.13;;;;;;;25.00;56.67;97443.41;5053665;28;20204;-24
2022/07/28 06:03:30;;;;;;;12.23;8.13;;;;;;;24.99;56.55;97435.66;5053496;28;20741;-24
2022/07/28 06:05:57;;;;;;;12.23;7.93;;;;;;;24.99;56.54;97422.81;5053733;28;20255;-24
2022/07/28 06:08:41;;;;;;;12.30;8.23;;;;;;;24.97;56.60;97421.91;5053369;28;20236;-24
2022/07/28 06:11:08;;;;;;;11.47;8.13;;;;;;;24.96;56.27;97425.34;5053039;28;20233;-24
2022/07/28 06:13:35;;;;;;;10.27;7.67;;;;;;;24.91;57.03;97417.56;5052677;28;20217;-24
2022/07/28 06:16:05;;;;;;;8.50;7.03;;;;;;;24.96;56.80;97428.75;5053486;28;20200;-24
2022/07/28 06:18:38;;;;;;;11.00;7.10;;;;;;;24.87;57.41;97410.63;5053439;28;20219;-24
2022/07/28 06:21:05;;;;;;;11.97;7.20;;;;;;;24.92;57.35;97418.41;5052982;28;20220;-24
2022/07/28 06:23:31;;;;;;;10.30;6.97;;;;;;;24.97;57.43;97434.75;5053055;28;20220;-24
2022/07/28 06:25:58;;;;;;;9.60;7.17;;;;;;;24.90;57.84;97425.25;5052995;28;20460;-24
2022/07/28 06:28:24;;;;;;;10.23;6.90;;;;;;;24.97;58.38;97430.50;5052873;28;20330;-24
2022/07/28 06:30:51;;;;;;;10.07;6.90;;;;;;;24.97;58.33;97433.06;5053234;28;20243;-24
2022/07/28 06:33:18;;;;;;;9.67;6.67;;;;;;;24.97;58.77;97432.19;5052883;28;20228;-24
2022/07/28 06:35:44;;;;;;;8.87;5.93;;;;;;;24.98;58.96;97434.78;5052720;28;20755;-24
2022/07/28 06:38:16;;;;;;;7.93;6.20;;;;;;;24.98;58.93;97434.78;5053208;28;20193;-24
2022/07/28 06:40:45;;;;;;;8.27;6.10;;;;;;;24.98;58.66;97433.91;5052822;28;20197;-24
2022/07/28 06:43:13;;;;;;;9.37;6.70;;;;;;;24.97;58.69;97440.78;5053219;28;20667;-24
2022/07/28 06:45:39;;;;;;;8.47;5.97;;;;;;;24.98;58.78;97439.94;5052468;28;20585;-24
2022/07/28 06:48:07;;;;;;;9.67;6.50;;;;;;;24.99;59.33;97440.81;5053040;28;20671;-24
2022/07/28 06:50:34;;;;;;;9.97;6.27;;;;;;;24.98;59.52;97437.34;5052820;28;20247;-24
2022/07/28 06:53:01;;;;;;;6.60;5.77;;;;;;;24.98;59.26;97442.50;5026361;28;20252;-24
2022/07/28 06:55:30;;;;;;;6.80;5.90;;;;;;;24.89;59.20;97415.78;5052314;28;20228;-24
2022/07/28 06:58:02;;;;;;;7.70;5.83;;;;;;;24.93;59.26;97426.13;5034769;28;20252;-24
2022/07/28 07:00:29;;;;;;;8.33;5.70;;;;;;;25.00;59.33;97432.25;5052739;28;20209;-24
2022/07/28 07:02:55;;;;;;;6.50;5.80;;;;;;;24.92;59.72;97418.41;5052155;28;20387;-24
2022/07/28 07:05:22;;;;;;;7.43;5.00;;;;;;;25.01;60.02;97424.53;5052569;28;20225;-24
2022/07/28 07:07:48;;;;;;;6.20;5.20;;;;;;;25.01;59.35;97419.41;5052668;28;20243;-24
2022/07/28 07:10:15;;;;;;;7.43;6.00;;;;;;;25.01;60.21;97419.41;5052342;28;20312;-24
2022/07/28 07:12:42;;;;;;;8.67;5.70;;;;;;;25.01;60.33;97419.41;5052462;28;20209;-24
2022/07/28 07:15:09;;;;;;;6.37;5.60;;;;;;;25.02;60.29;97415.97;5052159;28;20628;-24
2022/07/28 07:17:38;;;;;;;6.80;5.43;;;;;;;24.98;60.03;97410.78;5052524;28;20260;-24
2022/07/28 07:20:05;;;;;;;6.53;5.37;;;;;;;25.02;60.06;97410.00;5052028;28;20251;-24
2022/07/28 07:22:32;;;;;;;6.80;5.13;;;;;;;25.02;60.34;97408.25;5052219;28;20238;-24
2022/07/28 07:25:11;;;;;;;6.33;5.37;;;;;;;24.97;60.31;97406.47;5052107;28;20209;-24
2022/07/28 07:27:38;;;;;;;8.40;5.30;;;;;;;25.01;60.30;97413.38;5048834;28;20638;-24
2022/07/28 07:30:05;;;;;;;6.43;5.13;;;;;;;25.00;60.23;97412.53;5050967;28;20248;-24
2022/07/28 07:32:32;;;;;;;5.50;4.80;;;;;;;25.01;60.43;97413.38;5051788;28;20197;-24
2022/07/28 07:34:58;;;;;;;6.07;5.10;;;;;;;25.00;60.29;97412.53;5051938;28;20319;-24
2022/07/28 07:37:25;;;;;;;5.60;4.90;;;;;;;25.01;60.52;97414.25;5051850;28;20225;-24
2022/07/28 07:39:51;;;;;;;5.33;4.83;;;;;;;25.02;60.71;97412.56;5052322;28;20228;-24
2022/07/28 07:42:18;;;;;;;6.13;5.33;;;;;;;25.03;60.30;97414.28;5051821;28;20236;-24
2022/07/28 07:44:50;;;;;;;5.50;4.90;;;;;;;25.03;60.41;97416.84;5051750;28;20307;-24
2022/07/28 07:47:17;;;;;;;5.60;4.97;;;;;;;25.03;60.89;97406.56;5051380;28;20671;-24
2022/07/28 07:49:43;;;;;;;5.33;4.67;;;;;;;25.03;60.58;97404.00;5051796;28;20248;-24
2022/07/28 07:52:12;;;;;;;6.60;4.97;;;;;;;24.96;61.04;97394.47;5051410;28;20237;-24
2022/07/28 07:54:39;;;;;;;5.23;4.70;;;;;;;25.02;60.89;97400.56;5051967;28;20248;-24
2022/07/28 07:57:05;;;;;;;5.67;4.23;;;;;;;25.02;61.31;97392.84;5043297;28;20291;-24
2022/07/28 07:59:32;;;;;;;5.00;4.40;;;;;;;25.03;61.06;97398.84;5051772;28;20640;-24
2022/07/28 08:01:59;;;;;;;5.67;4.80;;;;;;;25.03;60.91;97394.59;5051809;28;20272;-24
2022/07/28 08:04:25;;;;;;;4.90;4.43;;;;;;;25.03;61.16;97386.00;5051595;28;20221;-24
2022/07/28 08:06:54;;;;;;;5.30;4.80;;;;;;;25.04;61.08;97398.00;5051013;28;20193;-24
2022/07/28 08:09:21;;;;;;;5.00;4.27;;;;;;;25.02;61.14;97397.13;5051289;28;20223;-24
2022/07/28 08:11:48;;;;;;;6.13;4.70;;;;;;;25.03;60.82;97393.72;5051143;28;20245;-24
2022/07/28 08:14:15;;;;;;;6.40;4.30;;;;;;;25.03;61.06;97399.72;5050888;28;20662;-24
2022/07/28 08:16:43;;;;;;;5.00;4.43;;;;;;;25.04;60.98;97398.88;5050381;28;20667;-24
2022/07/28 08:19:09;;;;;;;5.43;3.90;;;;;;;25.04;60.96;97390.28;5051028;28;20656;-24
2022/07/28 08:21:38;;;;;;;5.73;4.13;;;;;;;25.04;61.31;97398.00;5051730;28;20550;-24
2022/07/28 08:24:05;;;;;;;4.57;4.07;;;;;;;25.03;60.87;97392.00;5050755;28;20263;-24
2022/07/28 08:26:31;;;;;;;4.80;4.40;;;;;;;25.00;61.01;97394.53;5050797;28;20806;-24
2022/07/28 08:28:58;;;;;;;4.30;3.90;;;;;;;25.05;61.21;97389.47;5050824;28;20668;-24
2022/07/28 08:31:25;;;;;;;4.50;4.10;;;;;;;25.04;61.47;97401.44;5051306;28;20287;-24
2022/07/28 08:33:51;;;;;;;6.87;4.37;;;;;;;25.01;61.25;97391.13;5050838;28;20228;-23
2022/07/28 08:36:20;;;;;;;4.63;3.90;;;;;;;25.04;61.29;97395.44;5045924;28;20237;-22
2022/07/28 08:38:47;;;;;;;4.87;4.37;;;;;;;25.04;61.42;97396.31;5048136;28;20284;-22
2022/07/28 08:41:20;;;;;;;4.70;4.30;;;;;;;25.03;61.56;97394.59;5050907;28;20232;-22
2022/07/28 08:43:47;;;;;;;5.53;4.33;;;;;;;24.98;61.11;97377.34;5049705;28;20260;-22
2022/07/28 08:46:13;;;;;;;4.80;4.03;;;;;;;25.04;61.35;97387.72;5049082;28;20295;-22
2022/07/28 08:48:42;;;;;;;4.33;3.93;;;;;;;24.99;61.07;97379.09;5046514;28;20229;-22
2022/07/28 08:51:10;;;;;;;5.40;4.20;;;;;;;25.04;61.31;97392.84;5032726;28;20215;-22
2022/07/28 08:53:38;;;;;;;4.90;4.40;;;;;;;24.98;61.38;97380.78;5046455;28;20221;-22
2022/07/28 08:56:10;;;;;;;4.00;3.60;;;;;;;25.03;61.27;97386.88;5050192;28;20568;-23
2022/07/28 08:58:37;;;;;;;4.87;4.17;;;;;;;25.03;61.48;97389.44;5047636;28;20299;-23
2022/07/28 09:01:06;;;;;;;4.30;3.90;;;;;;;25.02;61.29;97389.41;5049922;28;20288;-22
2022/07/28 09:03:33;;;;;;;4.37;3.97;;;;;;;25.03;61.22;97386.00;5050399;28;20256;-23
2022/07/28 09:05:59;;;;;;;5.03;4.27;;;;;;;25.03;61.29;97386.88;5049330;28;20505;-23
2022/07/28 09:08:26;;;;;;;4.50;4.00;;;;;;;25.00;61.49;97379.13;5050536;28;20426;-22
2022/07/28 09:10:53;;;;;;;4.97;4.47;;;;;;;25.04;61.47;97386.00;5041761;28;20292;-22
2022/07/28 09:13:19;;;;;;;4.60;4.13;;;;;;;25.03;61.30;97379.16;5032841;28;20307;-22
2022/07/28 09:15:46;;;;;;;4.00;3.70;;;;;;;25.04;61.17;97382.56;5043372;28;20299;-22
2022/07/28 09:18:13;;;;;;;4.43;4.03;;;;;;;25.04;61.36;97391.16;5049456;28;20782;-23
2022/07/28 09:20:41;;;;;;;5.13;4.30;;;;;;;25.05;61.46;97386.88;5050146;28;20272;-23
2022/07/28 09:23:08;;;;;;;4.07;3.67;;;;;;;24.97;61.38;97368.78;5050278;28;20672;-22
2022/07/28 09:26:07;;;;;;;4.97;4.23;;;;;;;25.05;61.52;97374.03;5050666;28;20204;-22
2022/07/28 09:28:48;;;;;;;4.27;3.87;;;;;;;25.05;61.28;97389.47;5050636;28;20262;-22
2022/07/28 09:31:15;;;;;;;4.40;3.93;;;;;;;25.04;61.75;97382.56;5048434;28;20236;-23
2022/07/28 09:34:12;;;;;;;3.83;3.53;;;;;;;25.05;61.79;97374.03;5056109;28;20223;-23
2022/07/28 09:36:40;;;;;;;4.27;3.90;;;;;;;25.05;61.80;97381.75;5051806;28;20683;-23
2022/07/28 09:39:07;;;;;;;4.30;3.90;;;;;;;25.05;61.53;97376.59;5048322;28;20239;-22
2022/07/28 09:41:47;;;;;;;5.67;3.90;;;;;;;25.05;61.91;97372.31;5054045;28;20209;-23
2022/07/28 09:44:18;;;;;;;6.50;4.23;;;;;;;25.06;64.48;97370.59;5054267;28;20588;-23
2022/07/28 09:46:45;;;;;;;4.53;4.00;;;;;;;25.07;66.94;97377.47;5051051;28;20239;-22
2022/07/28 09:49:11;;;;;;;4.63;4.20;;;;;;;25.06;67.74;97368.91;5052652;28;20682;-23
2022/07/28 09:51:39;;;;;;;4.13;3.73;;;;;;;25.08;68.44;97366.34;5057539;28;20572;-23
2022/07/28 09:54:12;;;;;;;4.87;3.90;;;;;;;25.08;68.02;97374.06;5053616;28;20661;-22
2022/07/28 09:56:44;;;;;;;4.23;3.83;;;;;;;25.07;67.69;97365.47;5053559;28;20232;-22
2022/07/28 09:59:11;;;;;;;4.63;3.90;;;;;;;25.07;67.10;97367.19;5046577;28;20229;-22
2022/07/28 10:02:11;;;;;;;4.87;4.37;;;;;;;25.07;65.87;97374.91;5053987;28;20223;-22
2022/07/28 10:04:39;;;;;;;4.77;4.33;;;;;;;25.05;65.05;97351.72;5032848;28;20669;-22
2022/07/28 10:07:15;;;;;;;8.50;4.27;;;;;;;25.05;65.11;97356.88;5053502;28;20193;-22
2022/07/28 10:09:42;;;;;;;5.40;4.37;;;;;;;25.05;64.76;97363.75;5053377;28;20722;-22
2022/07/28 10:12:23;;;;;;;4.70;4.30;;;;;;;25.05;64.50;97350.88;5053989;28;20232;-22
2022/07/28 10:14:51;;;;;;;4.87;4.33;;;;;;;25.05;64.66;97345.75;5051479;28;20733;-22
2022/07/28 10:17:28;;;;;;;5.17;4.23;;;;;;;25.04;64.12;97344.88;5053126;28;20240;-23
2022/07/28 10:20:02;;;;;;;5.57;4.00;;;;;;;24.98;64.34;97331.06;5052618;28;20224;-22
2022/07/28 10:22:36;;;;;;;4.23;3.67;;;;;;;25.02;64.03;97348.28;5053510;28;20333;-21
2022/07/28 10:25:11;;;;;;;4.47;4.07;;;;;;;25.01;64.13;97342.25;5052736;28;20283;-22
2022/07/28 10:27:39;;;;;;;5.43;4.43;;;;;;;24.97;63.84;97335.38;5053455;28;20247;-23
2022/07/28 10:30:07;;;;;;;6.00;4.53;;;;;;;25.01;63.81;97338.81;5053231;28;20271;-23
2022/07/28 10:32:51;;;;;;;4.63;3.90;;;;;;;24.80;64.01;97298.28;5053202;28;20619;-23
2022/07/28 10:35:18;;;;;;;4.27;3.87;;;;;;;25.01;63.88;97343.97;5050704;28;20232;-22
2022/07/28 10:38:05;;;;;;;4.70;4.30;;;;;;;25.01;64.03;97334.56;5050933;28;20208;-23
2022/07/28 10:40:35;;;;;;;4.70;4.10;;;;;;;24.96;63.97;97327.63;5052880;28;20280;-23
2022/07/28 10:43:01;;;;;;;4.77;3.70;;;;;;;24.77;63.81;97287.09;5048508;28;20794;-23
2022/07/28 10:45:28;;;;;;;4.77;4.37;;;;;;;24.95;64.06;97324.19;5051101;28;20259;-22
2022/07/28 10:48:15;;;;;;;4.77;4.27;;;;;;;23.68;63.44;97120.31;5045548;28;20209;-23
2022/07/28 10:50:42;;;;;;;6.80;4.23;;;;;;;25.00;63.69;97334.53;5033304;28;20217;-22
2022/07/28 10:53:08;;;;;;;4.43;4.07;;;;;;;25.00;63.45;97324.25;5034618;28;20224;-23
2022/07/28 10:55:57;;;;;;;4.73;4.30;;;;;;;24.95;63.64;97306.19;5034772;28;20347;-22
2022/07/28 10:58:37;;;;;;;6.63;4.10;;;;;;;25.00;64.12;97326.81;5051910;28;20580;-22
2022/07/28 11:01:07;;;;;;;4.60;4.20;;;;;;;24.99;63.74;97322.53;5051468;28;20224;-23
2022/07/28 11:03:43;;;;;;;4.40;4.00;;;;;;;24.99;63.61;97322.53;5052837;28;20596;-23
2022/07/28 11:06:44;;;;;;;4.80;4.30;;;;;;;24.99;63.63;97313.09;5048723;28;20667;-22
2022/07/28 11:09:14;;;;;;;4.53;4.13;;;;;;;24.98;63.74;97311.38;5045721;28;20197;-23
2022/07/28 11:11:53;;;;;;;4.83;4.30;;;;;;;24.98;64.06;97310.50;5052341;28;20205;-22
2022/07/28 11:14:25;;;;;;;4.63;4.23;;;;;;;24.98;63.77;97293.38;5053048;28;20255;-23
2022/07/28 11:17:04;;;;;;;4.23;3.83;;;;;;;24.96;64.05;97305.34;5052252;28;20205;-24
2022/07/28 11:19:45;;;;;;;4.33;3.93;;;;;;;24.96;63.79;97307.06;5049061;28;20197;-23
2022/07/28 11:22:32;;;;;;;4.73;4.07;;;;;;;24.95;63.77;97297.59;5049362;28;20193;-22
2022/07/28 11:25:03;;;;;;;4.40;4.00;;;;;;;24.93;64.05;97289.88;5052426;28;20203;-22
2022/07/28 11:27:49;;;;;;;3.97;3.37;;;;;;;24.93;63.91;97289.88;5048204;28;20232;-22
2022/07/28 11:30:27;;;;;;;4.60;4.00;;;;;;;24.95;63.63;97289.88;5046398;28;20227;-22
2022/07/28 11:32:54;;;;;;;4.27;3.87;;;;;;;24.95;63.92;97302.75;5050275;28;20607;-22
2022/07/28 11:35:21;;;;;;;4.30;3.93;;;;;;;24.84;64.08;97281.19;5051902;28;20204;-23
2022/07/28 11:38:00;;;;;;;5.10;4.60;;;;;;;24.95;63.63;97293.34;5051288;28;20295;-23
2022/07/28 11:40:30;;;;;;;4.60;4.20;;;;;;;24.96;63.86;97292.47;5052462;28;20613;-23
2022/07/28 11:43:21;;;;;;;4.23;3.83;;;;;;;24.96;63.85;97289.06;5050764;28;20221;-22
2022/07/28 11:46:05;;;;;;;4.20;3.80;;;;;;;24.96;63.79;97283.94;5051227;28;20193;-21